sensor_id;sensor_type;location;lat;lon;timestamp;P1;durP1;ratioP1;P2;durP2;ratioP2
55015;SDS011;40919;43.236;21.590;2023-06-01T00:01:50;21.17;;;13.98;;
55015;SDS011;40919;43.236;21.590;2023-06-01T00:04:16;22.83;;;12.10;;
55015;SDS011;40919;43.236;21.590;2023-06-01T00:06:44;26.40;;;14.38;;
55015;SDS011;40919;43.236;21.590;2023-06-01T00:09:10;26.17;;;13.98;;
55015;SDS011;40919;43.236;21.590;2023-06-01T00:11:36;21.27;;;13.38;;
55015;SDS011;40919;43.236;21.590;2023-06-01T00:14:02;19.55;;;12.82;;
55015;SDS011;40919;43.236;21.590;2023-06-01T00:16:28;19.40;;;13.93;;
55015;SDS011;40919;43.236;21.590;2023-06-01T00:18:55;19.75;;;13.15;;
55015;SDS011;40919;43.236;21.590;2023-06-01T00:21:22;20.48;;;12.02;;
55015;SDS011;40919;43.236;21.590;2023-06-01T00:23:48;27.95;;;13.10;;
55015;SDS011;40919;43.236;21.590;2023-06-01T00:26:15;22.08;;;13.65;;
55015;SDS011;40919;43.236;21.590;2023-06-01T00:28:41;22.15;;;13.15;;
55015;SDS011;40919;43.236;21.590;2023-06-01T00:31:06;28.15;;;13.85;;
55015;SDS011;40919;43.236;21.590;2023-06-01T00:33:32;15.77;;;10.73;;
55015;SDS011;40919;43.236;21.590;2023-06-01T00:35:58;23.42;;;11.75;;
55015;SDS011;40919;43.236;21.590;2023-06-01T00:38:24;17.73;;;11.10;;
55015;SDS011;40919;43.236;21.590;2023-06-01T00:40:50;18.40;;;11.65;;
55015;SDS011;40919;43.236;21.590;2023-06-01T00:43:16;18.42;;;11.15;;
55015;SDS011;40919;43.236;21.590;2023-06-01T00:45:42;25.23;;;13.40;;
55015;SDS011;40919;43.236;21.590;2023-06-01T00:48:08;22.35;;;12.20;;
55015;SDS011;40919;43.236;21.590;2023-06-01T00:50:35;20.90;;;12.32;;
55015;SDS011;40919;43.236;21.590;2023-06-01T00:53:02;22.10;;;13.60;;
55015;SDS011;40919;43.236;21.590;2023-06-01T00:55:30;21.85;;;14.68;;
55015;SDS011;40919;43.236;21.590;2023-06-01T00:57:56;30.73;;;16.30;;
55015;SDS011;40919;43.236;21.590;2023-06-01T01:00:22;26.38;;;15.82;;
55015;SDS011;40919;43.236;21.590;2023-06-01T01:02:51;26.48;;;16.30;;
55015;SDS011;40919;43.236;21.590;2023-06-01T01:05:17;29.05;;;15.45;;
55015;SDS011;40919;43.236;21.590;2023-06-01T01:08:02;26.38;;;15.57;;
55015;SDS011;40919;43.236;21.590;2023-06-01T01:10:41;20.67;;;13.13;;
55015;SDS011;40919;43.236;21.590;2023-06-01T01:13:35;22.60;;;13.50;;
55015;SDS011;40919;43.236;21.590;2023-06-01T01:19:20;19.20;;;11.77;;
55015;SDS011;40919;43.236;21.590;2023-06-01T01:27:45;17.35;;;11.65;;
55015;SDS011;40919;43.236;21.590;2023-06-01T01:30:38;27.77;;;15.05;;
55015;SDS011;40919;43.236;21.590;2023-06-01T01:33:07;30.00;;;15.88;;
55015;SDS011;40919;43.236;21.590;2023-06-01T01:35:34;29.00;;;15.73;;
55015;SDS011;40919;43.236;21.590;2023-06-01T01:38:01;33.50;;;16.15;;
55015;SDS011;40919;43.236;21.590;2023-06-01T01:40:27;24.17;;;14.88;;
55015;SDS011;40919;43.236;21.590;2023-06-01T01:42:53;24.80;;;14.57;;
55015;SDS011;40919;43.236;21.590;2023-06-01T01:45:19;26.35;;;15.00;;
55015;SDS011;40919;43.236;21.590;2023-06-01T01:47:51;32.53;;;14.95;;
55015;SDS011;40919;43.236;21.590;2023-06-01T01:50:26;28.35;;;16.48;;
55015;SDS011;40919;43.236;21.590;2023-06-01T01:52:55;25.10;;;16.85;;
55015;SDS011;40919;43.236;21.590;2023-06-01T01:55:21;32.03;;;18.33;;
55015;SDS011;40919;43.236;21.590;2023-06-01T01:57:52;25.77;;;15.75;;
55015;SDS011;40919;43.236;21.590;2023-06-01T02:00:20;28.33;;;15.53;;
55015;SDS011;40919;43.236;21.590;2023-06-01T02:02:47;22.35;;;13.68;;
55015;SDS011;40919;43.236;21.590;2023-06-01T02:05:13;25.65;;;15.52;;
55015;SDS011;40919;43.236;21.590;2023-06-01T02:07:39;25.52;;;14.98;;
55015;SDS011;40919;43.236;21.590;2023-06-01T02:10:05;26.73;;;15.57;;
55015;SDS011;40919;43.236;21.590;2023-06-01T02:12:31;29.30;;;15.50;;
55015;SDS011;40919;43.236;21.590;2023-06-01T02:14:57;23.83;;;15.13;;
55015;SDS011;40919;43.236;21.590;2023-06-01T02:17:23;25.67;;;14.68;;
55015;SDS011;40919;43.236;21.590;2023-06-01T02:19:51;24.38;;;14.38;;
55015;SDS011;40919;43.236;21.590;2023-06-01T02:22:17;20.25;;;14.18;;
55015;SDS011;40919;43.236;21.590;2023-06-01T02:24:43;25.23;;;14.60;;
55015;SDS011;40919;43.236;21.590;2023-06-01T02:27:09;19.70;;;12.80;;
55015;SDS011;40919;43.236;21.590;2023-06-01T02:29:34;21.50;;;12.95;;
55015;SDS011;40919;43.236;21.590;2023-06-01T02:32:00;18.08;;;11.73;;
55015;SDS011;40919;43.236;21.590;2023-06-01T02:34:26;17.98;;;11.73;;
55015;SDS011;40919;43.236;21.590;2023-06-01T02:36:52;17.30;;;11.88;;
55015;SDS011;40919;43.236;21.590;2023-06-01T02:39:21;18.55;;;12.15;;
55015;SDS011;40919;43.236;21.590;2023-06-01T02:41:47;18.83;;;13.07;;
55015;SDS011;40919;43.236;21.590;2023-06-01T02:44:13;22.08;;;13.95;;
55015;SDS011;40919;43.236;21.590;2023-06-01T02:46:38;21.38;;;14.35;;
55015;SDS011;40919;43.236;21.590;2023-06-01T02:49:04;25.15;;;15.45;;
55015;SDS011;40919;43.236;21.590;2023-06-01T02:51:30;22.05;;;14.10;;
55015;SDS011;40919;43.236;21.590;2023-06-01T02:53:56;21.85;;;14.13;;
55015;SDS011;40919;43.236;21.590;2023-06-01T02:56:22;23.40;;;12.93;;
55015;SDS011;40919;43.236;21.590;2023-06-01T02:58:48;19.05;;;12.57;;
55015;SDS011;40919;43.236;21.590;2023-06-01T03:01:14;20.15;;;13.30;;
55015;SDS011;40919;43.236;21.590;2023-06-01T03:03:40;20.10;;;12.70;;
55015;SDS011;40919;43.236;21.590;2023-06-01T03:06:07;22.08;;;12.82;;
55015;SDS011;40919;43.236;21.590;2023-06-01T03:08:33;17.27;;;12.95;;
55015;SDS011;40919;43.236;21.590;2023-06-01T03:11:00;20.02;;;13.43;;
55015;SDS011;40919;43.236;21.590;2023-06-01T03:13:27;19.92;;;13.23;;
55015;SDS011;40919;43.236;21.590;2023-06-01T03:15:53;24.33;;;13.93;;
55015;SDS011;40919;43.236;21.590;2023-06-01T03:18:19;22.85;;;14.13;;
55015;SDS011;40919;43.236;21.590;2023-06-01T03:20:45;20.17;;;13.85;;
55015;SDS011;40919;43.236;21.590;2023-06-01T03:23:12;21.90;;;13.43;;
55015;SDS011;40919;43.236;21.590;2023-06-01T03:25:38;23.13;;;14.68;;
55015;SDS011;40919;43.236;21.590;2023-06-01T03:28:04;21.00;;;13.32;;
55015;SDS011;40919;43.236;21.590;2023-06-01T03:30:30;20.15;;;13.38;;
55015;SDS011;40919;43.236;21.590;2023-06-01T03:32:56;23.95;;;13.85;;
55015;SDS011;40919;43.236;21.590;2023-06-01T03:35:22;25.27;;;15.43;;
55015;SDS011;40919;43.236;21.590;2023-06-01T03:37:48;23.33;;;14.60;;
55015;SDS011;40919;43.236;21.590;2023-06-01T03:40:14;21.00;;;13.38;;
55015;SDS011;40919;43.236;21.590;2023-06-01T03:42:43;21.52;;;15.10;;
55015;SDS011;40919;43.236;21.590;2023-06-01T03:45:11;23.70;;;15.35;;
55015;SDS011;40919;43.236;21.590;2023-06-01T03:47:38;27.38;;;16.58;;
55015;SDS011;40919;43.236;21.590;2023-06-01T03:50:04;22.92;;;15.32;;
55015;SDS011;40919;43.236;21.590;2023-06-01T03:52:32;20.33;;;13.98;;
55015;SDS011;40919;43.236;21.590;2023-06-01T03:54:58;19.23;;;13.55;;
55015;SDS011;40919;43.236;21.590;2023-06-01T03:57:29;20.60;;;14.50;;
55015;SDS011;40919;43.236;21.590;2023-06-01T03:59:55;24.60;;;13.70;;
55015;SDS011;40919;43.236;21.590;2023-06-01T04:02:21;20.08;;;13.05;;
55015;SDS011;40919;43.236;21.590;2023-06-01T04:04:48;18.40;;;12.35;;
55015;SDS011;40919;43.236;21.590;2023-06-01T04:07:14;19.05;;;11.85;;
55015;SDS011;40919;43.236;21.590;2023-06-01T04:09:43;16.42;;;12.23;;
55015;SDS011;40919;43.236;21.590;2023-06-01T04:12:09;15.45;;;10.43;;
55015;SDS011;40919;43.236;21.590;2023-06-01T04:14:36;17.65;;;11.15;;
55015;SDS011;40919;43.236;21.590;2023-06-01T04:17:02;17.35;;;10.82;;
55015;SDS011;40919;43.236;21.590;2023-06-01T04:19:28;16.67;;;10.60;;
55015;SDS011;40919;43.236;21.590;2023-06-01T04:21:54;16.38;;;9.88;;
55015;SDS011;40919;43.236;21.590;2023-06-01T04:24:21;18.02;;;10.93;;
55015;SDS011;40919;43.236;21.590;2023-06-01T04:26:46;16.63;;;10.73;;
55015;SDS011;40919;43.236;21.590;2023-06-01T04:29:12;14.23;;;9.98;;
55015;SDS011;40919;43.236;21.590;2023-06-01T04:31:38;14.63;;;11.18;;
55015;SDS011;40919;43.236;21.590;2023-06-01T04:34:04;17.88;;;12.38;;
55015;SDS011;40919;43.236;21.590;2023-06-01T04:36:33;19.35;;;13.15;;
55015;SDS011;40919;43.236;21.590;2023-06-01T04:39:04;17.92;;;12.85;;
55015;SDS011;40919;43.236;21.590;2023-06-01T04:41:32;22.17;;;14.68;;
55015;SDS011;40919;43.236;21.590;2023-06-01T04:44:00;19.25;;;14.90;;
55015;SDS011;40919;43.236;21.590;2023-06-01T04:46:30;19.60;;;16.02;;
55015;SDS011;40919;43.236;21.590;2023-06-01T04:48:56;22.27;;;16.25;;
55015;SDS011;40919;43.236;21.590;2023-06-01T04:51:23;21.48;;;15.32;;
55015;SDS011;40919;43.236;21.590;2023-06-01T04:53:50;21.58;;;17.80;;
55015;SDS011;40919;43.236;21.590;2023-06-01T04:56:20;26.80;;;18.10;;
55015;SDS011;40919;43.236;21.590;2023-06-01T04:58:54;27.88;;;19.20;;
55015;SDS011;40919;43.236;21.590;2023-06-01T05:01:21;29.60;;;19.55;;
55015;SDS011;40919;43.236;21.590;2023-06-01T05:03:50;28.55;;;19.42;;
55015;SDS011;40919;43.236;21.590;2023-06-01T05:06:18;33.05;;;17.83;;
55015;SDS011;40919;43.236;21.590;2023-06-01T05:08:45;28.92;;;17.58;;
55015;SDS011;40919;43.236;21.590;2023-06-01T05:11:11;27.25;;;17.52;;
55015;SDS011;40919;43.236;21.590;2023-06-01T05:13:40;37.30;;;19.85;;
55015;SDS011;40919;43.236;21.590;2023-06-01T05:16:07;32.08;;;19.98;;
55015;SDS011;40919;43.236;21.590;2023-06-01T05:18:33;32.40;;;19.70;;
55015;SDS011;40919;43.236;21.590;2023-06-01T05:21:00;37.03;;;20.05;;
55015;SDS011;40919;43.236;21.590;2023-06-01T05:23:26;34.03;;;18.05;;
55015;SDS011;40919;43.236;21.590;2023-06-01T05:25:53;28.85;;;17.58;;
55015;SDS011;40919;43.236;21.590;2023-06-01T05:28:24;23.38;;;14.82;;
55015;SDS011;40919;43.236;21.590;2023-06-01T05:30:50;22.52;;;16.08;;
55015;SDS011;40919;43.236;21.590;2023-06-01T05:33:16;23.48;;;16.05;;
55015;SDS011;40919;43.236;21.590;2023-06-01T05:35:42;23.08;;;16.30;;
55015;SDS011;40919;43.236;21.590;2023-06-01T05:38:08;23.65;;;17.27;;
55015;SDS011;40919;43.236;21.590;2023-06-01T05:40:34;19.45;;;14.30;;
55015;SDS011;40919;43.236;21.590;2023-06-01T05:43:01;22.42;;;15.93;;
55015;SDS011;40919;43.236;21.590;2023-06-01T05:45:27;18.15;;;13.90;;
55015;SDS011;40919;43.236;21.590;2023-06-01T05:47:53;22.65;;;16.02;;
55015;SDS011;40919;43.236;21.590;2023-06-01T05:50:19;19.55;;;15.55;;
55015;SDS011;40919;43.236;21.590;2023-06-01T05:52:45;20.13;;;17.25;;
55015;SDS011;40919;43.236;21.590;2023-06-01T05:55:10;18.30;;;16.33;;
55015;SDS011;40919;43.236;21.590;2023-06-01T05:57:36;20.98;;;18.23;;
55015;SDS011;40919;43.236;21.590;2023-06-01T06:00:02;18.92;;;15.77;;
55015;SDS011;40919;43.236;21.590;2023-06-01T06:02:34;17.55;;;14.45;;
55015;SDS011;40919;43.236;21.590;2023-06-01T06:05:00;14.98;;;12.90;;
55015;SDS011;40919;43.236;21.590;2023-06-01T06:07:26;14.88;;;11.70;;
55015;SDS011;40919;43.236;21.590;2023-06-01T06:09:51;12.63;;;9.25;;
55015;SDS011;40919;43.236;21.590;2023-06-01T06:12:17;10.60;;;8.43;;
55015;SDS011;40919;43.236;21.590;2023-06-01T06:14:43;9.23;;;7.53;;
55015;SDS011;40919;43.236;21.590;2023-06-01T06:17:09;10.35;;;7.60;;
55015;SDS011;40919;43.236;21.590;2023-06-01T06:19:35;8.25;;;7.38;;
55015;SDS011;40919;43.236;21.590;2023-06-01T06:22:01;10.48;;;7.43;;
55015;SDS011;40919;43.236;21.590;2023-06-01T06:24:26;8.63;;;7.32;;
55015;SDS011;40919;43.236;21.590;2023-06-01T06:26:52;10.85;;;8.43;;
55015;SDS011;40919;43.236;21.590;2023-06-01T06:29:18;8.98;;;7.38;;
55015;SDS011;40919;43.236;21.590;2023-06-01T06:31:44;9.15;;;7.70;;
55015;SDS011;40919;43.236;21.590;2023-06-01T06:34:13;10.02;;;8.07;;
55015;SDS011;40919;43.236;21.590;2023-06-01T06:36:39;10.48;;;7.95;;
55015;SDS011;40919;43.236;21.590;2023-06-01T06:39:05;8.48;;;7.13;;
55015;SDS011;40919;43.236;21.590;2023-06-01T06:41:31;13.10;;;8.30;;
55015;SDS011;40919;43.236;21.590;2023-06-01T06:43:57;12.73;;;9.63;;
55015;SDS011;40919;43.236;21.590;2023-06-01T06:46:22;13.65;;;9.25;;
55015;SDS011;40919;43.236;21.590;2023-06-01T06:48:48;9.25;;;8.27;;
55015;SDS011;40919;43.236;21.590;2023-06-01T06:51:14;11.00;;;9.70;;
55015;SDS011;40919;43.236;21.590;2023-06-01T06:53:40;11.15;;;9.05;;
55015;SDS011;40919;43.236;21.590;2023-06-01T06:56:06;13.35;;;10.00;;
55015;SDS011;40919;43.236;21.590;2023-06-01T06:58:31;13.18;;;9.88;;
55015;SDS011;40919;43.236;21.590;2023-06-01T07:00:57;15.70;;;10.35;;
55015;SDS011;40919;43.236;21.590;2023-06-01T07:03:23;14.52;;;9.80;;
55015;SDS011;40919;43.236;21.590;2023-06-01T07:05:48;11.43;;;9.82;;
55015;SDS011;40919;43.236;21.590;2023-06-01T07:08:15;14.00;;;11.05;;
55015;SDS011;40919;43.236;21.590;2023-06-01T07:10:41;11.75;;;10.55;;
55015;SDS011;40919;43.236;21.590;2023-06-01T07:13:07;14.75;;;11.70;;
55015;SDS011;40919;43.236;21.590;2023-06-01T07:15:32;17.70;;;12.18;;
55015;SDS011;40919;43.236;21.590;2023-06-01T07:17:58;16.80;;;11.27;;
55015;SDS011;40919;43.236;21.590;2023-06-01T07:20:24;13.77;;;12.15;;
55015;SDS011;40919;43.236;21.590;2023-06-01T07:22:50;12.95;;;11.60;;
55015;SDS011;40919;43.236;21.590;2023-06-01T07:25:16;16.55;;;12.82;;
55015;SDS011;40919;43.236;21.590;2023-06-01T07:27:41;16.92;;;12.90;;
55015;SDS011;40919;43.236;21.590;2023-06-01T07:30:11;17.08;;;13.50;;
55015;SDS011;40919;43.236;21.590;2023-06-01T07:32:37;13.43;;;11.98;;
55015;SDS011;40919;43.236;21.590;2023-06-01T07:35:03;14.20;;;12.75;;
55015;SDS011;40919;43.236;21.590;2023-06-01T07:37:31;14.63;;;12.38;;
55015;SDS011;40919;43.236;21.590;2023-06-01T07:39:57;14.38;;;12.90;;
55015;SDS011;40919;43.236;21.590;2023-06-01T07:42:23;20.38;;;12.65;;
55015;SDS011;40919;43.236;21.590;2023-06-01T07:44:48;14.73;;;11.60;;
55015;SDS011;40919;43.236;21.590;2023-06-01T07:47:15;15.88;;;11.70;;
55015;SDS011;40919;43.236;21.590;2023-06-01T07:49:41;15.40;;;11.82;;
55015;SDS011;40919;43.236;21.590;2023-06-01T07:52:07;14.98;;;10.57;;
55015;SDS011;40919;43.236;21.590;2023-06-01T07:54:34;16.40;;;11.65;;
55015;SDS011;40919;43.236;21.590;2023-06-01T07:57:02;16.08;;;11.25;;
55015;SDS011;40919;43.236;21.590;2023-06-01T07:59:29;18.08;;;11.30;;
55015;SDS011;40919;43.236;21.590;2023-06-01T08:01:56;14.50;;;10.90;;
55015;SDS011;40919;43.236;21.590;2023-06-01T08:04:22;12.23;;;9.90;;
55015;SDS011;40919;43.236;21.590;2023-06-01T08:06:49;10.77;;;9.70;;
55015;SDS011;40919;43.236;21.590;2023-06-01T08:09:18;15.20;;;10.48;;
55015;SDS011;40919;43.236;21.590;2023-06-01T08:11:45;12.27;;;10.18;;
55015;SDS011;40919;43.236;21.590;2023-06-01T08:14:11;15.75;;;10.52;;
55015;SDS011;40919;43.236;21.590;2023-06-01T08:16:37;14.05;;;10.25;;
55015;SDS011;40919;43.236;21.590;2023-06-01T08:19:02;11.70;;;9.45;;
55015;SDS011;40919;43.236;21.590;2023-06-01T08:21:28;14.15;;;11.48;;
55015;SDS011;40919;43.236;21.590;2023-06-01T08:23:54;15.60;;;11.77;;
55015;SDS011;40919;43.236;21.590;2023-06-01T08:26:21;11.27;;;10.07;;
55015;SDS011;40919;43.236;21.590;2023-06-01T08:28:47;14.35;;;10.73;;
55015;SDS011;40919;43.236;21.590;2023-06-01T08:31:20;11.82;;;9.80;;
55015;SDS011;40919;43.236;21.590;2023-06-01T08:33:47;11.35;;;9.57;;
55015;SDS011;40919;43.236;21.590;2023-06-01T08:36:14;12.90;;;9.43;;
55015;SDS011;40919;43.236;21.590;2023-06-01T08:38:40;13.55;;;11.20;;
55015;SDS011;40919;43.236;21.590;2023-06-01T08:44:05;16.20;;;11.27;;
55015;SDS011;40919;43.236;21.590;2023-06-01T08:46:33;12.95;;;11.63;;
55015;SDS011;40919;43.236;21.590;2023-06-01T08:49:00;13.77;;;11.43;;
55015;SDS011;40919;43.236;21.590;2023-06-01T08:51:26;16.83;;;11.75;;
55015;SDS011;40919;43.236;21.590;2023-06-01T08:53:54;16.60;;;11.18;;
55015;SDS011;40919;43.236;21.590;2023-06-01T08:56:22;20.63;;;12.90;;
55015;SDS011;40919;43.236;21.590;2023-06-01T08:58:48;15.55;;;13.75;;
55015;SDS011;40919;43.236;21.590;2023-06-01T09:01:18;17.63;;;13.63;;
55015;SDS011;40919;43.236;21.590;2023-06-01T09:03:50;16.25;;;14.55;;
55015;SDS011;40919;43.236;21.590;2023-06-01T09:06:16;16.17;;;12.98;;
55015;SDS011;40919;43.236;21.590;2023-06-01T09:08:44;17.40;;;13.43;;
55015;SDS011;40919;43.236;21.590;2023-06-01T09:11:10;16.08;;;14.38;;
55015;SDS011;40919;43.236;21.590;2023-06-01T09:13:36;19.85;;;16.95;;
55015;SDS011;40919;43.236;21.590;2023-06-01T09:16:04;17.85;;;14.15;;
55015;SDS011;40919;43.236;21.590;2023-06-01T09:18:31;17.75;;;16.08;;
55015;SDS011;40919;43.236;21.590;2023-06-01T09:21:13;50.00;;;16.77;;
55015;SDS011;40919;43.236;21.590;2023-06-01T09:23:40;15.80;;;14.20;;
55015;SDS011;40919;43.236;21.590;2023-06-01T09:26:10;17.48;;;13.73;;
55015;SDS011;40919;43.236;21.590;2023-06-01T09:31:38;14.90;;;13.35;;
55015;SDS011;40919;43.236;21.590;2023-06-01T09:34:18;15.93;;;13.43;;
55015;SDS011;40919;43.236;21.590;2023-06-01T09:36:45;20.77;;;13.02;;
55015;SDS011;40919;43.236;21.590;2023-06-01T09:39:16;15.07;;;11.82;;
55015;SDS011;40919;43.236;21.590;2023-06-01T09:42:04;15.35;;;11.48;;
55015;SDS011;40919;43.236;21.590;2023-06-01T09:47:02;16.58;;;11.75;;
55015;SDS011;40919;43.236;21.590;2023-06-01T09:55:04;14.65;;;11.40;;
55015;SDS011;40919;43.236;21.590;2023-06-01T09:57:29;17.17;;;11.52;;
55015;SDS011;40919;43.236;21.590;2023-06-01T09:59:55;14.20;;;11.10;;
55015;SDS011;40919;43.236;21.590;2023-06-01T10:02:22;16.55;;;11.65;;
55015;SDS011;40919;43.236;21.590;2023-06-01T10:04:53;17.77;;;11.70;;
55015;SDS011;40919;43.236;21.590;2023-06-01T10:07:23;15.38;;;10.95;;
55015;SDS011;40919;43.236;21.590;2023-06-01T10:09:52;12.82;;;11.18;;
55015;SDS011;40919;43.236;21.590;2023-06-01T10:12:21;14.45;;;10.73;;
55015;SDS011;40919;43.236;21.590;2023-06-01T10:14:48;14.55;;;12.77;;
55015;SDS011;40919;43.236;21.590;2023-06-01T10:17:15;13.75;;;12.15;;
55015;SDS011;40919;43.236;21.590;2023-06-01T10:19:41;15.02;;;11.65;;
55015;SDS011;40919;43.236;21.590;2023-06-01T10:22:08;12.13;;;10.18;;
55015;SDS011;40919;43.236;21.590;2023-06-01T10:24:36;14.55;;;10.82;;
55015;SDS011;40919;43.236;21.590;2023-06-01T10:29:40;12.48;;;9.40;;
55015;SDS011;40919;43.236;21.590;2023-06-01T10:40:38;9.30;;;7.38;;
55015;SDS011;40919;43.236;21.590;2023-06-01T10:43:04;15.40;;;9.30;;
55015;SDS011;40919;43.236;21.590;2023-06-01T10:48:02;9.95;;;8.90;;
55015;SDS011;40919;43.236;21.590;2023-06-01T10:50:28;11.05;;;9.00;;
55015;SDS011;40919;43.236;21.590;2023-06-01T10:52:55;11.55;;;8.60;;
55015;SDS011;40919;43.236;21.590;2023-06-01T10:55:22;10.65;;;6.68;;
55015;SDS011;40919;43.236;21.590;2023-06-01T10:57:49;10.32;;;6.70;;
55015;SDS011;40919;43.236;21.590;2023-06-01T11:00:22;11.45;;;6.50;;
55015;SDS011;40919;43.236;21.590;2023-06-01T11:02:56;7.97;;;6.32;;
55015;SDS011;40919;43.236;21.590;2023-06-01T11:08:04;10.87;;;6.73;;
55015;SDS011;40919;43.236;21.590;2023-06-01T11:24:17;9.75;;;6.40;;
55015;SDS011;40919;43.236;21.590;2023-06-01T11:26:47;11.40;;;6.78;;
55015;SDS011;40919;43.236;21.590;2023-06-01T11:29:21;11.77;;;6.05;;
55015;SDS011;40919;43.236;21.590;2023-06-01T11:31:55;8.05;;;5.72;;
55015;SDS011;40919;43.236;21.590;2023-06-01T11:34:37;8.43;;;5.85;;
55015;SDS011;40919;43.236;21.590;2023-06-01T11:37:06;10.00;;;7.30;;
55015;SDS011;40919;43.236;21.590;2023-06-01T11:39:41;9.88;;;8.25;;
55015;SDS011;40919;43.236;21.590;2023-06-01T11:42:07;14.15;;;9.10;;
55015;SDS011;40919;43.236;21.590;2023-06-01T11:44:44;10.23;;;8.02;;
55015;SDS011;40919;43.236;21.590;2023-06-01T11:47:14;10.73;;;6.65;;
55015;SDS011;40919;43.236;21.590;2023-06-01T11:49:43;13.93;;;9.65;;
55015;SDS011;40919;43.236;21.590;2023-06-01T11:52:10;13.90;;;8.00;;
55015;SDS011;40919;43.236;21.590;2023-06-01T11:54:36;11.70;;;7.07;;
55015;SDS011;40919;43.236;21.590;2023-06-01T11:57:03;9.52;;;7.00;;
55015;SDS011;40919;43.236;21.590;2023-06-01T11:59:37;11.32;;;6.47;;
55015;SDS011;40919;43.236;21.590;2023-06-01T12:02:15;9.20;;;6.30;;
55015;SDS011;40919;43.236;21.590;2023-06-01T12:04:41;13.75;;;10.20;;
55015;SDS011;40919;43.236;21.590;2023-06-01T12:07:08;11.82;;;9.10;;
55015;SDS011;40919;43.236;21.590;2023-06-01T12:09:34;10.90;;;7.50;;
55015;SDS011;40919;43.236;21.590;2023-06-01T12:12:00;12.30;;;7.95;;
55015;SDS011;40919;43.236;21.590;2023-06-01T12:14:27;13.52;;;6.38;;
55015;SDS011;40919;43.236;21.590;2023-06-01T12:19:26;11.15;;;5.93;;
55015;SDS011;40919;43.236;21.590;2023-06-01T12:21:53;8.77;;;6.32;;
55015;SDS011;40919;43.236;21.590;2023-06-01T12:24:27;10.20;;;5.22;;
55015;SDS011;40919;43.236;21.590;2023-06-01T12:26:54;11.60;;;5.88;;
55015;SDS011;40919;43.236;21.590;2023-06-01T12:32:08;7.45;;;4.78;;
55015;SDS011;40919;43.236;21.590;2023-06-01T12:34:35;9.20;;;6.00;;
55015;SDS011;40919;43.236;21.590;2023-06-01T12:37:18;7.03;;;5.78;;
55015;SDS011;40919;43.236;21.590;2023-06-01T12:39:54;12.00;;;6.90;;
55015;SDS011;40919;43.236;21.590;2023-06-01T12:42:42;11.30;;;5.80;;
55015;SDS011;40919;43.236;21.590;2023-06-01T12:45:07;6.97;;;5.50;;
55015;SDS011;40919;43.236;21.590;2023-06-01T12:50:06;6.93;;;4.57;;
55015;SDS011;40919;43.236;21.590;2023-06-01T12:52:35;6.43;;;4.95;;
55015;SDS011;40919;43.236;21.590;2023-06-01T12:55:01;5.85;;;4.65;;
55015;SDS011;40919;43.236;21.590;2023-06-01T12:57:29;7.55;;;4.70;;
55015;SDS011;40919;43.236;21.590;2023-06-01T12:59:56;11.35;;;6.30;;
55015;SDS011;40919;43.236;21.590;2023-06-01T13:02:22;10.60;;;5.80;;
55015;SDS011;40919;43.236;21.590;2023-06-01T13:04:49;13.02;;;5.90;;
55015;SDS011;40919;43.236;21.590;2023-06-01T13:07:15;7.43;;;5.35;;
55015;SDS011;40919;43.236;21.590;2023-06-01T13:09:41;7.28;;;5.82;;
55015;SDS011;40919;43.236;21.590;2023-06-01T13:12:07;6.43;;;4.53;;
55015;SDS011;40919;43.236;21.590;2023-06-01T13:14:34;6.90;;;4.53;;
55015;SDS011;40919;43.236;21.590;2023-06-01T13:17:00;6.85;;;5.05;;
55015;SDS011;40919;43.236;21.590;2023-06-01T13:19:28;8.38;;;5.45;;
55015;SDS011;40919;43.236;21.590;2023-06-01T13:21:54;10.45;;;5.80;;
55015;SDS011;40919;43.236;21.590;2023-06-01T13:24:21;7.80;;;5.10;;
55015;SDS011;40919;43.236;21.590;2023-06-01T13:26:47;7.05;;;5.10;;
55015;SDS011;40919;43.236;21.590;2023-06-01T13:29:13;7.38;;;5.35;;
55015;SDS011;40919;43.236;21.590;2023-06-01T13:31:39;13.80;;;5.18;;
55015;SDS011;40919;43.236;21.590;2023-06-01T13:34:04;12.55;;;6.97;;
55015;SDS011;40919;43.236;21.590;2023-06-01T13:36:30;12.88;;;9.77;;
55015;SDS011;40919;43.236;21.590;2023-06-01T13:38:56;16.65;;;10.65;;
55015;SDS011;40919;43.236;21.590;2023-06-01T13:41:23;11.88;;;8.10;;
55015;SDS011;40919;43.236;21.590;2023-06-01T13:43:49;13.15;;;9.88;;
55015;SDS011;40919;43.236;21.590;2023-06-01T13:46:15;9.40;;;5.95;;
55015;SDS011;40919;43.236;21.590;2023-06-01T13:48:41;11.02;;;6.13;;
55015;SDS011;40919;43.236;21.590;2023-06-01T13:51:06;10.00;;;6.63;;
55015;SDS011;40919;43.236;21.590;2023-06-01T13:53:32;16.00;;;7.68;;
55015;SDS011;40919;43.236;21.590;2023-06-01T13:55:59;12.38;;;5.40;;
55015;SDS011;40919;43.236;21.590;2023-06-01T13:58:25;8.98;;;4.55;;
55015;SDS011;40919;43.236;21.590;2023-06-01T14:00:51;8.05;;;5.57;;
55015;SDS011;40919;43.236;21.590;2023-06-01T14:03:17;9.95;;;5.00;;
55015;SDS011;40919;43.236;21.590;2023-06-01T14:05:43;7.13;;;4.35;;
55015;SDS011;40919;43.236;21.590;2023-06-01T14:08:09;9.05;;;5.80;;
55015;SDS011;40919;43.236;21.590;2023-06-01T14:10:35;9.27;;;6.10;;
55015;SDS011;40919;43.236;21.590;2023-06-01T14:13:01;8.77;;;5.03;;
55015;SDS011;40919;43.236;21.590;2023-06-01T14:15:27;10.55;;;5.95;;
55015;SDS011;40919;43.236;21.590;2023-06-01T14:17:53;16.30;;;9.00;;
55015;SDS011;40919;43.236;21.590;2023-06-01T14:20:20;13.32;;;5.95;;
55015;SDS011;40919;43.236;21.590;2023-06-01T14:22:47;8.05;;;5.20;;
55015;SDS011;40919;43.236;21.590;2023-06-01T14:25:13;13.82;;;5.97;;
55015;SDS011;40919;43.236;21.590;2023-06-01T14:27:41;9.68;;;5.90;;
55015;SDS011;40919;43.236;21.590;2023-06-01T14:30:07;9.18;;;6.07;;
55015;SDS011;40919;43.236;21.590;2023-06-01T14:32:33;8.85;;;5.38;;
55015;SDS011;40919;43.236;21.590;2023-06-01T14:34:59;8.95;;;5.68;;
55015;SDS011;40919;43.236;21.590;2023-06-01T14:37:25;7.85;;;6.03;;
55015;SDS011;40919;43.236;21.590;2023-06-01T14:39:51;10.38;;;6.30;;
55015;SDS011;40919;43.236;21.590;2023-06-01T14:42:17;9.73;;;6.25;;
55015;SDS011;40919;43.236;21.590;2023-06-01T14:44:43;9.73;;;5.30;;
55015;SDS011;40919;43.236;21.590;2023-06-01T14:47:09;11.32;;;6.03;;
55015;SDS011;40919;43.236;21.590;2023-06-01T14:49:39;10.70;;;5.68;;
55015;SDS011;40919;43.236;21.590;2023-06-01T14:52:05;8.65;;;5.72;;
55015;SDS011;40919;43.236;21.590;2023-06-01T14:54:31;8.43;;;6.13;;
55015;SDS011;40919;43.236;21.590;2023-06-01T14:56:57;13.57;;;6.57;;
55015;SDS011;40919;43.236;21.590;2023-06-01T14:59:23;11.05;;;6.57;;
55015;SDS011;40919;43.236;21.590;2023-06-01T15:01:49;8.98;;;5.97;;
55015;SDS011;40919;43.236;21.590;2023-06-01T15:04:15;12.57;;;5.65;;
55015;SDS011;40919;43.236;21.590;2023-06-01T15:06:40;11.07;;;5.80;;
55015;SDS011;40919;43.236;21.590;2023-06-01T15:09:06;9.63;;;5.47;;
55015;SDS011;40919;43.236;21.590;2023-06-01T15:11:32;7.32;;;5.05;;
55015;SDS011;40919;43.236;21.590;2023-06-01T15:13:58;8.75;;;6.13;;
55015;SDS011;40919;43.236;21.590;2023-06-01T15:16:24;10.07;;;4.90;;
55015;SDS011;40919;43.236;21.590;2023-06-01T15:18:51;7.32;;;4.75;;